KWRL/WRL METAR and TAF weather

Enter ICAO airport designator
Station Type Date Time Source
KWRL METAR 2019/10/23 07:53 UTC NOAA

KWRL 230753Z AUTO 17006KT 10SM FEW055 SCT070 OVC095 03/01 A3001 RMK AO2 SLP164 T00330011


Station Type Date Time Source
KWRL Decoded METAR 2019/10/23 07:53 UTC NOAA

WORLAND MUNICIPAL AIRPORT, WY, United States (KWRL) 43-58N 107-57W 1271M
Oct 23, 2019 - 03:53 AM EDT / 2019.10.23 0753 UTC
Wind: from the S (170 degrees) at 7 MPH (6 KT):0
Visibility: 10 mile(s):0
Sky conditions: overcast
Temperature: 37.9 F (3.3 C)
Dew Point: 34.0 F (1.1 C)
Relative Humidity: 85%
Pressure (altimeter): 30.01 in. Hg (1016 hPa)
ob: KWRL 230753Z AUTO 17006KT 10SM FEW055 SCT070 OVC095 03/01 A3001 RMK AO2 SLP164 T00330011
cycle: 8

Station Type Date Time Source
KWRL TAF 2019/10/23 08:18 UTC NOAA

TAF
AMD KWRL 230815Z 2308/2406 VRB06KT P6SM VCSH SCT030 BKN070
FM231300 33015G25KT P6SM VCSH SCT030 BKN045
FM240100 34010KT P6SM BKN080

Example: see airport list